Time;durP1;ratioP1;P1;durP2;ratioP2;P2;SDS_P1;SDS_P2;PMS_P1;PMS_P2;Temp;Humidity;BMP_temperature;BMP_pressure;BME280_temperature;BME280_humidity;BME280_pressure;Samples;Min_cycle;Max_cycle;Signal;HPM_P1;HPM_P2
2021/10/28 00:14:37;;;;;;;4.18;3.10;;;;;;;17.26;73.27;101958.69;4897941;29;20100;-83
2021/10/28 00:17:15;;;;;;;3.22;2.80;;;;;;;17.27;72.77;101956.13;4882239;29;20028;-81
2021/10/28 00:19:41;;;;;;;4.18;3.50;;;;;;;17.27;73.64;101957.84;4899126;29;20474;-80
2021/10/28 00:22:08;;;;;;;3.58;3.17;;;;;;;17.26;73.29;101950.91;4882161;29;20394;-81
2021/10/28 00:24:33;;;;;;;4.07;3.00;;;;;;;17.26;73.69;101961.31;4866787;29;20452;-82
2021/10/28 00:26:59;;;;;;;3.30;3.00;;;;;;;17.27;73.48;101950.91;4882261;29;20032;-78
2021/10/28 00:29:28;;;;;;;3.60;3.30;;;;;;;17.25;73.35;101951.78;4882281;29;20032;-79
2021/10/28 00:31:57;;;;;;;3.50;3.20;;;;;;;17.25;73.32;101951.78;4882402;29;20516;-81
2021/10/28 00:34:23;;;;;;;3.65;3.35;;;;;;;17.25;73.15;101952.63;4882452;29;20362;-81
2021/10/28 00:36:49;;;;;;;4.20;3.17;;;;;;;17.25;72.95;101950.03;4898917;29;20028;-79
2021/10/28 00:39:15;;;;;;;3.30;2.90;;;;;;;17.25;73.10;101946.56;4882372;29;20037;-78
2021/10/28 00:41:42;;;;;;;5.55;3.60;;;;;;;17.26;73.24;101943.09;4851369;29;20509;-81
2021/10/28 00:44:10;;;;;;;3.38;3.03;;;;;;;17.25;73.29;101941.38;4881943;29;20040;-83
2021/10/28 00:46:39;;;;;;;3.58;3.10;;;;;;;17.26;73.21;101943.09;4897492;29;20036;-81
2021/10/28 00:49:08;;;;;;;3.42;2.90;;;;;;;17.24;73.46;101942.22;4881844;29;20039;-81
2021/10/28 00:51:34;;;;;;;3.35;2.97;;;;;;;17.24;73.02;101934.41;4898538;29;20024;-81
2021/10/28 00:54:01;;;;;;;4.25;3.10;;;;;;;17.23;72.53;101938.75;4881795;29;20032;-80
2021/10/28 00:56:29;;;;;;;3.85;3.17;;;;;;;17.24;73.05;101934.41;4897311;29;20020;-81
2021/10/28 00:58:55;;;;;;;5.97;3.22;;;;;;;17.24;73.38;101940.47;4898462;29;20033;-82
2021/10/28 01:01:21;;;;;;;4.60;3.00;;;;;;;17.24;72.81;101934.41;4898407;29;20029;-80
2021/10/28 01:03:46;;;;;;;3.92;3.10;;;;;;;17.23;73.17;101938.75;4881673;29;20389;-80
2021/10/28 01:06:14;;;;;;;3.30;2.78;;;;;;;17.25;72.76;101938.75;4866164;29;20040;-82
2021/10/28 01:08:44;;;;;;;4.90;3.28;;;;;;;17.22;73.14;101928.31;4898500;29;20059;-81
2021/10/28 01:11:11;;;;;;;3.80;2.78;;;;;;;17.21;73.46;101927.44;4898312;29;20048;-80
2021/10/28 01:13:38;;;;;;;4.63;3.08;;;;;;;17.22;73.23;101933.50;4865974;29;20075;-82
2021/10/28 01:16:05;;;;;;;3.28;2.72;;;;;;;17.23;73.21;101925.72;4881714;29;20055;-79
2021/10/28 01:18:32;;;;;;;4.90;3.17;;;;;;;17.22;73.21;101920.50;4881411;29;20039;-82
2021/10/28 01:20:59;;;;;;;4.15;3.08;;;;;;;17.22;72.81;101923.09;4881533;29;20528;-82
2021/10/28 01:23:27;;;;;;;3.83;3.08;;;;;;;17.22;73.08;101923.09;4881404;29;20029;-82
2021/10/28 01:26:05;;;;;;;3.30;2.80;;;;;;;17.22;72.70;101931.81;4898024;29;20092;-81
2021/10/28 01:28:31;;;;;;;3.30;2.95;;;;;;;17.21;73.25;101931.78;4898066;29;20035;-81
2021/10/28 01:31:03;;;;;;;3.30;2.88;;;;;;;17.21;73.21;101930.03;4881754;29;20032;-81
2021/10/28 01:33:29;;;;;;;3.42;2.78;;;;;;;17.22;73.05;101933.50;4896757;29;20047;-82
2021/10/28 01:35:55;;;;;;;3.03;2.75;;;;;;;17.22;73.05;101937.00;4896884;29;20478;-82
2021/10/28 01:38:27;;;;;;;3.15;2.85;;;;;;;17.21;73.45;101929.19;4898291;29;20035;-82
2021/10/28 01:40:58;;;;;;;3.33;2.92;;;;;;;17.21;73.14;101929.19;4897154;29;20504;-81
2021/10/28 01:43:25;;;;;;;3.35;3.03;;;;;;;17.21;73.16;101926.56;4881221;29;20029;-80
2021/10/28 01:45:50;;;;;;;3.22;2.65;;;;;;;17.22;72.53;101926.59;4881404;29;20059;-81
2021/10/28 01:48:18;;;;;;;4.50;2.80;;;;;;;17.20;73.03;101925.72;4897878;29;20155;-82
2021/10/28 01:50:44;;;;;;;3.85;2.90;;;;;;;17.21;72.72;101921.38;4881230;29;20063;-83
2021/10/28 01:53:11;;;;;;;3.53;3.20;;;;;;;17.19;73.09;101916.16;4898775;29;20056;-79
2021/10/28 01:55:36;;;;;;;3.35;3.00;;;;;;;17.21;72.59;101913.56;4883820;29;20044;-79
2021/10/28 01:58:02;;;;;;;3.22;2.92;;;;;;;17.19;72.54;101907.47;4899768;29;20029;-79
2021/10/28 02:00:28;;;;;;;3.92;2.88;;;;;;;17.19;72.81;101902.28;4882940;29;20127;-79
2021/10/28 02:02:54;;;;;;;3.22;2.92;;;;;;;17.21;72.40;101909.22;4868410;29;20037;-79
2021/10/28 02:05:24;;;;;;;3.63;3.10;;;;;;;17.20;72.85;101904.00;4871317;29;20036;-79
2021/10/28 02:07:52;;;;;;;3.30;3.00;;;;;;;17.19;72.94;101910.94;4903276;29;20032;-79
2021/10/28 02:10:20;;;;;;;3.35;2.95;;;;;;;17.18;73.10;101909.22;4872989;29;20025;-79
2021/10/28 02:12:47;;;;;;;5.15;2.90;;;;;;;17.17;72.85;101904.84;4904701;29;20470;-79
2021/10/28 02:15:15;;;;;;;4.30;3.20;;;;;;;17.18;72.91;101904.03;4904201;29;20033;-79
2021/10/28 02:17:41;;;;;;;3.55;3.00;;;;;;;17.20;72.64;101904.00;4905201;29;20028;-78
2021/10/28 02:20:10;;;;;;;3.25;2.92;;;;;;;17.18;72.58;101893.63;4903493;29;20441;-79
2021/10/28 02:22:37;;;;;;;3.42;2.83;;;;;;;17.19;72.75;101891.88;4904851;29;20024;-78
2021/10/28 02:25:05;;;;;;;3.47;2.80;;;;;;;17.18;72.81;101887.50;4904994;29;20469;-79
2021/10/28 02:27:30;;;;;;;3.67;3.05;;;;;;;17.17;72.59;101880.59;4904025;29;20047;-78
2021/10/28 02:29:56;;;;;;;3.85;3.13;;;;;;;17.18;72.40;101890.13;4908862;29;20029;-79
2021/10/28 02:32:21;;;;;;;3.35;2.90;;;;;;;17.19;72.69;101878.88;4877794;29;20032;-79
2021/10/28 02:34:47;;;;;;;4.70;3.08;;;;;;;17.17;72.89;101873.66;4890506;29;20127;-79
2021/10/28 02:37:13;;;;;;;4.68;3.10;;;;;;;17.18;72.93;101887.50;4875076;29;20577;-79
2021/10/28 02:39:39;;;;;;;3.55;2.90;;;;;;;17.15;72.76;101872.75;4889494;29;20035;-79
2021/10/28 02:42:05;;;;;;;3.28;2.90;;;;;;;17.17;72.31;101867.59;4885688;29;20032;-79
2021/10/28 02:44:31;;;;;;;3.40;3.05;;;;;;;17.18;72.26;101871.91;4871759;29;20032;-79
2021/10/28 02:46:56;;;;;;;3.80;3.00;;;;;;;17.16;72.54;101868.41;4887607;29;20442;-78
2021/10/28 02:49:23;;;;;;;4.70;2.83;;;;;;;17.18;72.35;101866.72;4887911;29;20100;-79
2021/10/28 02:51:49;;;;;;;3.20;2.90;;;;;;;17.18;72.67;101867.59;4887581;29;20033;-79
2021/10/28 02:54:16;;;;;;;3.17;2.60;;;;;;;17.17;72.33;101865.84;4888568;29;20076;-79
2021/10/28 02:56:41;;;;;;;3.25;2.95;;;;;;;17.17;73.08;101859.78;4888573;29;20039;-79
2021/10/28 02:59:08;;;;;;;4.05;2.85;;;;;;;17.15;72.51;101861.50;4888882;29;20497;-79
2021/10/28 03:01:34;;;;;;;3.83;2.80;;;;;;;17.16;72.66;101860.63;4888579;29;20029;-79
2021/10/28 03:03:59;;;;;;;3.28;2.83;;;;;;;17.16;72.46;101858.03;4873043;29;20029;-78
2021/10/28 03:06:26;;;;;;;3.47;2.70;;;;;;;17.16;72.56;101855.41;4888842;29;20057;-79
2021/10/28 03:08:51;;;;;;;3.13;2.83;;;;;;;17.15;72.50;101849.34;4888599;29;20116;-78
2021/10/28 03:11:17;;;;;;;3.22;2.75;;;;;;;17.16;72.77;101855.41;4904644;29;20065;-79
2021/10/28 03:13:45;;;;;;;3.05;2.75;;;;;;;17.15;72.42;101851.94;4887511;29;20053;-79
2021/10/28 03:16:28;;;;;;;3.47;2.72;;;;;;;17.16;72.69;101850.22;4886496;29;20112;-79
2021/10/28 03:27:06;;;;;;;2.90;2.60;;;;;;;17.16;72.44;101829.41;4887107;29;20425;-78
2021/10/28 03:29:31;;;;;;;3.20;2.78;;;;;;;17.15;72.56;101825.94;4883981;29;20028;-78
2021/10/28 03:31:56;;;;;;;3.42;2.72;;;;;;;17.16;72.40;101832.91;4868813;29;20032;-79
2021/10/28 03:34:22;;;;;;;3.33;3.03;;;;;;;17.14;72.31;101829.41;4868717;29;20123;-79
2021/10/28 03:36:54;;;;;;;3.85;3.05;;;;;;;17.14;71.75;101824.22;4853466;29;20039;-78
2021/10/28 03:47:08;;;;;;;3.30;2.90;;;;;;;17.15;71.76;101815.53;4885845;29;20055;-78
2021/10/28 04:00:19;;;;;;;3.47;2.90;;;;;;;17.12;72.32;101805.13;4870330;29;20028;-78
2021/10/28 04:29:32;;;;;;;;;;;;;;;17.14;71.73;101797.34;4884405;29;20052;-80
2021/10/28 04:34:33;;;;;;;3.45;2.70;;;;;;;17.13;71.61;101785.19;5343289;23;20044;-80
2021/10/28 04:37:26;;;;;;;3.25;2.60;;;;;;;17.13;71.94;101785.19;4923841;29;20026;-81
2021/10/28 04:39:52;;;;;;;4.10;2.80;;;;;;;17.12;71.92;101793.84;4928014;29;20534;-79
2021/10/28 04:42:17;;;;;;;4.47;2.92;;;;;;;17.11;72.03;101786.91;4920031;29;20032;-78
2021/10/28 04:44:43;;;;;;;3.25;2.70;;;;;;;17.12;71.61;101789.53;4908600;29;20035;-78
2021/10/28 04:47:08;;;;;;;3.42;2.75;;;;;;;17.12;71.50;101784.31;4908193;29;20097;-78
2021/10/28 04:49:34;;;;;;;3.60;2.58;;;;;;;17.12;71.47;101783.47;4907097;29;20042;-79
2021/10/28 04:52:00;;;;;;;3.70;2.95;;;;;;;17.13;71.87;101779.97;4890619;29;20104;-79
2021/10/28 04:54:25;;;;;;;3.53;2.97;;;;;;;17.13;71.58;101782.59;4905438;29;20032;-78
2021/10/28 04:56:54;;;;;;;2.63;2.42;;;;;;;17.13;71.63;101779.97;4904845;29;20040;-78
2021/10/28 04:59:19;;;;;;;3.20;2.80;;;;;;;17.12;71.50;101780.84;4888408;29;20493;-78
2021/10/28 05:01:45;;;;;;;3.00;2.70;;;;;;;17.12;71.46;101771.31;4889045;29;20091;-78
2021/10/28 05:04:10;;;;;;;3.45;2.65;;;;;;;17.12;71.46;101775.66;4888897;29;20052;-78
2021/10/28 05:06:36;;;;;;;5.78;2.60;;;;;;;17.13;71.52;101772.19;4904252;29;20024;-78
2021/10/28 05:09:03;;;;;;;4.10;2.85;;;;;;;17.11;71.47;101771.28;4891378;29;20028;-80
2021/10/28 05:11:29;;;;;;;3.83;3.15;;;;;;;17.11;71.49;101779.09;4897574;29;20032;-78
2021/10/28 05:13:56;;;;;;;3.08;2.70;;;;;;;17.13;71.53;101777.38;4911838;29;20032;-80
2021/10/28 05:16:22;;;;;;;2.88;2.58;;;;;;;17.11;71.61;101779.09;4890640;29;20043;-80
2021/10/28 05:18:47;;;;;;;2.90;2.55;;;;;;;17.11;71.19;101774.75;4924593;29;20036;-77
2021/10/28 05:21:15;;;;;;;3.85;2.83;;;;;;;17.12;71.52;101775.66;4887170;29;20393;-77
2021/10/28 05:27:04;;;;;;;13.07;4.35;;;;;;;17.22;71.52;101778.34;4926238;29;20087;-80
2021/10/28 05:29:29;;;;;;;10.77;4.13;;;;;;;17.21;70.77;101768.78;4910860;29;20028;-78
2021/10/28 05:31:56;;;;;;;14.88;4.35;;;;;;;17.24;71.61;101767.91;4887836;29;20044;-81
2021/10/28 05:34:23;;;;;;;11.13;4.35;;;;;;;17.22;71.88;101769.63;4886263;29;20056;-80
2021/10/28 05:36:49;;;;;;;13.10;4.75;;;;;;;17.26;72.38;101768.78;4885137;29;20060;-79
2021/10/28 05:39:15;;;;;;;12.60;4.55;;;;;;;17.25;72.22;101772.28;4871127;29;20075;-78
2021/10/28 05:41:41;;;;;;;8.15;3.70;;;;;;;17.25;71.89;101770.53;4887606;29;20031;-79
2021/10/28 05:44:06;;;;;;;11.77;3.67;;;;;;;17.27;71.75;101775.75;4871762;29;20024;-79
2021/10/28 05:46:31;;;;;;;8.05;4.30;;;;;;;17.28;71.69;101772.28;4872080;29;20041;-79
2021/10/28 05:48:57;;;;;;;8.10;3.85;;;;;;;17.28;71.33;101774.88;4871959;29;20545;-79
2021/10/28 05:51:25;;;;;;;7.97;3.45;;;;;;;17.30;72.24;101778.38;4887586;29;20024;-78
2021/10/28 05:53:51;;;;;;;5.72;3.70;;;;;;;17.30;71.64;101775.75;4887897;29;20116;-78
2021/10/28 05:56:18;;;;;;;7.25;3.60;;;;;;;17.30;71.67;101777.50;4888161;29;20028;-78
2021/10/28 05:58:46;;;;;;;6.50;3.72;;;;;;;17.31;71.70;101779.22;4904216;29;20500;-79
2021/10/28 06:01:11;;;;;;;8.25;3.72;;;;;;;17.31;71.98;101774.03;4887544;29;20036;-79
2021/10/28 06:03:46;;;;;;;7.28;3.80;;;;;;;17.31;72.28;101772.31;4875773;29;20012;-85
2021/10/28 06:07:06;;;;;;;6.05;3.47;;;;;;;17.33;71.55;101772.31;4910684;29;20020;-84
2021/10/28 06:09:32;;;;;;;4.88;3.30;;;;;;;17.33;71.87;101777.50;4903630;29;20121;-79
2021/10/28 06:11:58;;;;;;;4.45;3.42;;;;;;;17.34;72.49;101761.06;4888093;29;20115;-80
2021/10/28 06:14:25;;;;;;;4.72;3.20;;;;;;;17.34;72.18;101766.25;4870546;29;20037;-80
2021/10/28 06:17:03;;;;;;;5.38;3.50;;;;;;;17.35;71.70;101768.00;4870631;29;20035;-80
2021/10/28 06:19:28;;;;;;;7.10;3.17;;;;;;;17.35;71.65;101770.59;4885962;29;20028;-79
2021/10/28 06:22:00;;;;;;;4.18;3.20;;;;;;;17.36;71.90;101765.41;4870250;29;20514;-79
2021/10/28 06:24:25;;;;;;;4.75;3.17;;;;;;;17.36;71.21;101773.22;4885856;29;20021;-79
2021/10/28 06:26:51;;;;;;;4.45;3.03;;;;;;;17.36;71.60;101769.75;4871455;29;20175;-80
2021/10/28 06:29:16;;;;;;;5.55;3.10;;;;;;;17.38;71.40;101763.69;4886298;29;20024;-80
2021/10/28 06:31:43;;;;;;;4.28;3.20;;;;;;;17.38;71.73;101763.69;4872180;29;20032;-80
2021/10/28 06:34:17;;;;;;;4.85;3.38;;;;;;;17.39;71.54;101762.81;4872197;29;20052;-80
2021/10/28 06:36:43;;;;;;;6.53;3.30;;;;;;;17.39;71.43;101755.00;4873087;29;20061;-80
2021/10/28 06:39:23;;;;;;;5.72;3.20;;;;;;;17.41;71.90;101748.06;4879324;29;20037;-81
2021/10/28 06:41:49;;;;;;;4.60;3.03;;;;;;;17.40;71.61;101743.75;4881563;29;20036;-80
2021/10/28 06:44:16;;;;;;;5.72;3.20;;;;;;;17.41;71.71;101753.28;4896072;29;20027;-81
2021/10/28 06:46:42;;;;;;;3.35;3.05;;;;;;;17.41;71.38;101748.06;4891860;29;20075;-80
2021/10/28 06:49:08;;;;;;;3.40;2.78;;;;;;;17.44;71.32;101749.81;4892573;29;20036;-80
2021/10/28 06:51:39;;;;;;;4.05;3.20;;;;;;;17.43;72.00;101742.88;4889260;29;20165;-79
2021/10/28 06:54:17;;;;;;;3.75;2.92;;;;;;;17.42;71.74;101747.22;4886530;29;20119;-79
2021/10/28 07:04:44;;;;;;;2.88;2.55;;;;;;;17.49;71.18;101740.31;4877615;29;20021;-80
2021/10/28 07:07:09;;;;;;;4.07;3.08;;;;;;;17.50;71.59;101739.44;4890062;29;20073;-79
2021/10/28 07:09:38;;;;;;;3.33;2.80;;;;;;;17.51;71.25;101740.31;4891614;29;20089;-81
2021/10/28 07:14:41;;;;;;;4.18;2.60;;;;;;;17.53;71.79;101731.69;4896005;29;20070;-81
2021/10/28 07:17:20;;;;;;;2.90;2.60;;;;;;;17.53;71.45;101738.59;4900384;29;20035;-82
2021/10/28 07:20:02;;;;;;;3.80;2.70;;;;;;;17.65;69.21;101739.53;4896847;29;20055;-79
2021/10/28 08:16:21;;;;;;;3.00;2.03;;;;;;;18.71;65.76;101686.81;4863327;29;20044;-81
2021/10/28 08:22:00;;;;;;;3.45;2.13;;;;;;;18.69;65.92;101673.75;4848958;29;20112;-81
2021/10/28 08:28:40;;;;;;;3.15;2.03;;;;;;;18.71;65.80;101677.22;4860925;29;20067;-81
2021/10/28 08:34:05;;;;;;;6.60;2.05;;;;;;;18.55;67.01;101657.25;4841405;29;20606;-82
2021/10/28 08:36:55;;;;;;;2.63;1.98;;;;;;;18.53;67.53;101665.94;4844378;29;20070;-82
2021/10/28 08:39:45;;;;;;;3.83;2.22;;;;;;;18.49;66.61;101658.13;4843399;29;20099;-81
2021/10/28 08:42:25;;;;;;;2.20;1.75;;;;;;;18.45;66.92;101655.53;4817467;29;20042;-82
2021/10/28 08:44:55;;;;;;;2.75;2.10;;;;;;;18.42;67.83;101642.47;4830909;29;20058;-82
2021/10/28 08:47:27;;;;;;;2.85;2.00;;;;;;;18.42;67.33;101655.50;4846710;29;20049;-82
2021/10/28 08:53:32;;;;;;;2.40;2.10;;;;;;;18.38;67.11;101643.34;4858536;29;20041;-79
2021/10/28 09:25:46;;;;;;;3.55;2.15;;;;;;;18.23;67.13;101607.75;4907404;29;20043;-81
2021/10/28 09:28:37;;;;;;;3.17;2.20;;;;;;;18.24;67.25;101610.34;4918499;29;20017;-82
2021/10/28 09:31:16;;;;;;;2.45;2.10;;;;;;;18.21;67.11;101610.34;4887066;29;20056;-82
2021/10/28 09:46:20;;;;;;;3.00;2.08;;;;;;;18.21;67.20;101599.94;4841417;29;20110;-81
2021/10/28 10:04:31;;;;;;;3.05;2.22;;;;;;;18.17;67.33;101598.19;5230361;23;20059;-88
2021/10/28 10:10:40;;;;;;;2.65;2.05;;;;;;;18.19;67.53;101593.84;4899385;29;20175;-89
2021/10/28 10:13:10;;;;;;;2.70;2.30;;;;;;;18.18;67.45;101591.25;4869516;29;20100;-87
2021/10/28 11:04:45;;;;;;;3.97;2.50;;;;;;;18.27;66.70;101539.16;4108785;23;20059;-90
2021/10/28 16:31:35;;;;;;;2.78;1.90;;;;;;;18.76;65.30;101192.25;4898302;29;20055;-86
2021/10/28 16:34:00;;;;;;;3.10;2.05;;;;;;;18.77;65.32;101185.28;4894015;29;20033;-88
2021/10/28 16:40:31;;;;;;;4.47;1.98;;;;;;;18.79;65.25;101180.97;4896960;29;20147;-88
2021/10/28 16:42:56;;;;;;;3.20;2.10;;;;;;;18.78;65.32;101174.91;4873719;29;20036;-89
2021/10/28 16:52:06;;;;;;;3.22;2.08;;;;;;;18.70;65.46;101177.56;4911458;29;20051;-89
2021/10/28 17:01:53;;;;;;;3.78;2.10;;;;;;;18.65;65.70;101170.66;4949468;23;20049;-88
2021/10/28 17:04:21;;;;;;;4.93;2.28;;;;;;;18.63;65.89;101172.41;4934701;29;20055;-89
2021/10/28 17:06:47;;;;;;;4.18;2.40;;;;;;;18.61;65.50;101164.59;4915652;29;20103;-86
2021/10/28 17:09:14;;;;;;;3.40;2.30;;;;;;;18.61;65.59;101168.94;4915409;29;20028;-85
2021/10/28 17:11:40;;;;;;;5.40;2.33;;;;;;;18.60;65.68;101170.69;4933275;29;20100;-86
2021/10/28 17:17:29;;;;;;;4.60;2.30;;;;;;;18.58;65.63;101168.97;4934231;29;20055;-86
2021/10/28 17:23:18;;;;;;;4.00;2.22;;;;;;;18.56;65.85;101163.75;4933556;29;20051;-89
2021/10/28 17:31:55;;;;;;;5.38;2.40;;;;;;;18.55;65.78;101142.91;4932499;29;20185;-88
2021/10/28 17:34:25;;;;;;;8.50;2.65;;;;;;;18.55;66.05;101151.59;4914069;29;20085;-86
2021/10/28 17:49:37;;;;;;;5.78;2.70;;;;;;;18.56;66.28;101160.31;4931296;29;20042;-87
2021/10/28 17:52:05;;;;;;;4.72;2.42;;;;;;;18.55;66.58;101159.41;4899258;29;20123;-87
2021/10/28 17:57:53;;;;;;;4.45;2.75;;;;;;;18.54;66.50;101156.84;4935178;29;20075;-87
2021/10/28 18:03:04;;;;;;;5.72;2.42;;;;;;;18.56;66.39;101148.13;4988275;23;20497;-88
2021/10/28 18:05:30;;;;;;;3.85;2.15;;;;;;;18.57;66.43;101152.44;4916360;29;20035;-86
2021/10/28 18:07:55;;;;;;;5.15;2.58;;;;;;;18.60;66.27;101148.97;4930303;29;20057;-87
2021/10/28 18:19:57;;;;;;;6.10;2.72;;;;;;;18.55;66.52;101146.38;1445167;27;20059;-88
2021/10/28 18:22:23;;;;;;;5.25;2.70;;;;;;;18.54;66.32;101142.06;4934248;29;20043;-86
2021/10/28 18:34:56;;;;;;;4.68;2.58;;;;;;;18.52;66.39;101143.81;4938109;29;20046;-86
2021/10/28 18:53:56;;;;;;;5.18;2.70;;;;;;;18.50;66.30;101135.16;4940458;29;20100;-88
2021/10/28 19:04:51;;;;;;;5.70;2.90;;;;;;;18.47;66.27;101128.22;4936924;29;20109;-82
2021/10/28 19:07:16;;;;;;;6.03;2.78;;;;;;;18.48;66.11;101126.47;4923563;29;20039;-82
2021/10/28 19:09:42;;;;;;;5.55;2.30;;;;;;;18.50;66.04;101130.78;4916577;29;20028;-86
2021/10/28 19:12:08;;;;;;;6.32;2.25;;;;;;;18.56;66.03;101129.03;4919416;29;20039;-86
2021/10/28 19:14:38;;;;;;;4.78;2.40;;;;;;;18.59;66.00;101129.00;4904675;29;20441;-86
2021/10/28 19:17:04;;;;;;;4.32;2.33;;;;;;;18.61;66.00;101129.84;4916142;29;20044;-85
2021/10/28 19:19:57;;;;;;;7.18;2.75;;;;;;;18.63;65.83;101120.25;4913918;29;20481;-88
2021/10/28 19:22:42;;;;;;;4.32;2.70;;;;;;;18.66;65.96;101126.31;4915287;29;20052;-87
2021/10/28 19:25:09;;;;;;;4.18;2.50;;;;;;;18.61;65.85;101122.03;4909633;29;20028;-84
2021/10/28 19:27:35;;;;;;;4.95;2.47;;;;;;;18.55;66.21;101119.47;4912550;29;20119;-86
2021/10/28 19:30:26;;;;;;;5.63;2.65;;;;;;;18.50;66.29;101127.31;4896274;29;20083;-83
2021/10/28 19:32:56;;;;;;;4.90;2.33;;;;;;;18.46;66.32;101121.25;4882141;29;20465;-85
2021/10/28 19:35:31;;;;;;;4.97;2.70;;;;;;;18.45;66.46;101126.50;4926023;29;20148;-84
2021/10/28 19:46:40;;;;;;;7.45;2.50;;;;;;;18.41;66.64;101114.38;4920364;29;20100;-83
2021/10/28 19:49:07;;;;;;;4.55;2.50;;;;;;;18.39;66.36;101110.94;4929891;29;20481;-83
2021/10/28 19:51:32;;;;;;;5.97;2.30;;;;;;;18.40;66.61;101112.63;4930796;29;20039;-86
2021/10/28 19:54:14;;;;;;;4.68;2.60;;;;;;;18.38;66.88;101103.97;4914736;29;20123;-86
2021/10/28 19:56:43;;;;;;;7.95;2.70;;;;;;;18.40;67.16;101112.63;4930616;29;20034;-85
2021/10/28 19:59:17;;;;;;;5.45;2.67;;;;;;;18.39;67.03;101103.97;4910662;29;20032;-85
2021/10/28 20:23:50;;;;;;;5.50;2.40;;;;;;;18.39;67.74;101083.13;4904766;29;20063;-83
2021/10/28 20:26:17;;;;;;;6.03;2.58;;;;;;;18.39;67.60;101082.25;4893204;29;20088;-85
2021/10/28 20:28:46;;;;;;;5.57;2.50;;;;;;;18.39;67.93;101077.06;4890722;29;20434;-83
2021/10/28 20:31:13;;;;;;;5.45;2.65;;;;;;;18.38;67.45;101078.81;4886687;29;20029;-84
2021/10/28 20:33:45;;;;;;;6.18;2.70;;;;;;;18.37;67.47;101076.19;4888412;29;20481;-84
2021/10/28 20:38:36;;;;;;;5.95;2.58;;;;;;;18.36;67.39;101079.69;4895888;29;20501;-85
2021/10/28 20:41:04;;;;;;;5.70;2.70;;;;;;;18.36;67.43;101080.56;4910928;29;20043;-84
2021/10/28 20:50:16;;;;;;;7.05;2.50;;;;;;;18.36;67.37;101079.69;4915096;29;20048;-86
2021/10/28 20:52:48;;;;;;;4.22;2.40;;;;;;;18.35;67.65;101077.97;4897367;29;20029;-85
2021/10/28 20:55:14;;;;;;;5.22;2.70;;;;;;;18.33;67.58;101075.34;4897263;29;20029;-84
2021/10/28 20:58:17;;;;;;;5.22;2.58;;;;;;;18.34;67.30;101078.84;4893962;29;20084;-84
2021/10/28 21:00:44;;;;;;;3.95;2.28;;;;;;;18.33;67.64;101069.28;4915922;29;20024;-84
2021/10/28 21:03:30;;;;;;;3.17;2.33;;;;;;;18.34;67.53;101077.09;4899123;29;20063;-85
2021/10/28 21:05:57;;;;;;;4.32;2.47;;;;;;;18.34;67.65;101082.31;4843922;29;20048;-85
2021/10/28 21:08:24;;;;;;;5.07;2.67;;;;;;;18.35;67.62;101075.34;4877444;29;20072;-87
2021/10/28 21:10:50;;;;;;;4.45;2.65;;;;;;;18.33;67.53;101067.53;4850644;29;20414;-82
2021/10/28 21:13:15;;;;;;;4.00;2.30;;;;;;;18.32;67.59;101068.44;4833405;29;20029;-82
2021/10/28 21:15:47;;;;;;;3.80;2.47;;;;;;;18.31;67.21;101064.06;4842088;29;20050;-85
2021/10/28 21:21:44;;;;;;;6.43;2.30;;;;;;;18.33;67.59;101074.50;4877177;29;20044;-83
2021/10/28 21:24:11;;;;;;;4.63;2.40;;;;;;;18.33;67.60;101069.28;4874144;29;20517;-83
2021/10/28 21:26:37;;;;;;;6.55;2.40;;;;;;;18.33;67.42;101064.94;4860719;29;20514;-84
2021/10/28 21:31:50;;;;;;;6.05;2.47;;;;;;;18.30;67.20;101058.00;4878116;29;20048;-83
2021/10/28 21:34:15;;;;;;;3.45;2.33;;;;;;;18.31;67.25;101056.25;4862609;29;20030;-84
2021/10/28 21:37:21;;;;;;;5.78;2.38;;;;;;;18.31;67.44;101053.66;4876594;29;20069;-83
2021/10/28 21:39:49;;;;;;;3.53;2.25;;;;;;;18.28;67.32;101044.13;4915010;29;20477;-84
2021/10/28 21:42:14;;;;;;;4.30;2.42;;;;;;;18.30;67.05;101044.97;4916846;29;20036;-85
2021/10/28 21:51:27;;;;;;;7.03;2.53;;;;;;;18.29;67.16;101032.84;4918248;29;20024;-85
2021/10/28 22:00:12;;;;;;;5.07;2.40;;;;;;;18.28;66.84;101031.09;4873113;29;20094;-86
2021/10/28 23:21:38;;;;;;;5.00;2.20;;;;;;;18.19;66.51;100941.78;4942801;29;20088;-84
2021/10/28 23:44:26;;;;;;;4.15;2.20;;;;;;;18.19;66.25;100919.19;4883212;29;20054;-83
